Time;durP1;ratioP1;P1;durP2;ratioP2;P2;SDS_P1;SDS_P2;PMS_P1;PMS_P2;Temp;Humidity;BMP_temperature;BMP_pressure;BME280_temperature;BME280_humidity;BME280_pressure;Samples;Min_cycle;Max_cycle;Signal;HPM_P1;HPM_P2
2022/03/29 00:01:29;;;;;;;19.95;14.80;;;;;;;10.61;65.50;100901.47;4955349;28;20203;-70
2022/03/29 00:03:54;;;;;;;23.85;15.20;;;;;;;10.70;65.53;100909.59;4975338;28;20015;-69
2022/03/29 00:06:20;;;;;;;22.27;15.70;;;;;;;10.61;65.73;100906.78;4979267;28;20113;-70
2022/03/29 00:08:45;;;;;;;23.15;15.43;;;;;;;10.56;65.76;100906.34;4963420;28;20007;-70
2022/03/29 00:11:12;;;;;;;27.35;15.70;;;;;;;10.41;65.82;100903.22;4942435;28;20006;-69
2022/03/29 00:13:37;;;;;;;25.88;15.18;;;;;;;10.35;65.90;100905.53;4959099;28;20010;-70
2022/03/29 00:16:02;;;;;;;21.25;15.13;;;;;;;10.31;66.30;100900.47;4959576;28;20083;-70
2022/03/29 00:18:28;;;;;;;25.27;16.15;;;;;;;10.35;66.60;100894.97;4944662;28;20049;-70
2022/03/29 00:20:53;;;;;;;23.75;15.70;;;;;;;10.48;66.36;100900.88;4965760;28;20659;-70
2022/03/29 00:23:19;;;;;;;22.67;14.38;;;;;;;10.43;65.79;100892.50;4960855;28;20011;-70
2022/03/29 00:25:44;;;;;;;21.92;15.65;;;;;;;10.40;65.72;100890.94;4954046;28;20029;-69
2022/03/29 00:28:10;;;;;;;25.52;15.95;;;;;;;10.26;66.30;100893.91;4979385;28;20003;-69
2022/03/29 00:30:35;;;;;;;21.02;14.55;;;;;;;10.14;66.83;100887.88;4957055;28;20041;-70
2022/03/29 00:33:00;;;;;;;21.58;14.27;;;;;;;10.04;67.33;100881.66;4965063;28;20023;-72
2022/03/29 00:35:26;;;;;;;20.70;14.43;;;;;;;9.94;67.61;100885.09;4964886;28;20026;-70
2022/03/29 00:37:53;;;;;;;21.85;14.10;;;;;;;9.90;67.93;100875.75;4969769;28;20443;-70
2022/03/29 00:40:19;;;;;;;22.90;13.90;;;;;;;10.03;67.15;100880.00;4956108;28;20430;-70
2022/03/29 00:42:44;;;;;;;27.55;14.70;;;;;;;9.89;67.81;100868.78;4938674;28;20402;-70
2022/03/29 00:45:10;;;;;;;21.67;14.93;;;;;;;9.88;68.00;100868.91;4958953;28;20030;-70
2022/03/29 00:47:35;;;;;;;23.13;15.32;;;;;;;9.92;67.31;100873.81;4965964;28;20852;-69
2022/03/29 00:50:01;;;;;;;21.38;14.63;;;;;;;9.80;67.94;100870.41;4952847;28;20019;-70
2022/03/29 00:52:26;;;;;;;29.38;14.98;;;;;;;9.75;68.11;100866.47;4966729;28;20021;-70
2022/03/29 00:54:51;;;;;;;23.95;14.07;;;;;;;9.73;68.07;100861.31;4972308;28;20010;-69
2022/03/29 00:57:18;;;;;;;21.20;15.27;;;;;;;9.72;68.53;100870.19;4941381;28;20030;-70
2022/03/29 00:59:45;;;;;;;22.63;15.02;;;;;;;9.72;67.98;100864.91;4976199;28;20112;-69
2022/03/29 01:02:11;;;;;;;21.25;13.77;;;;;;;9.70;68.46;100858.09;4957210;28;20859;-69
2022/03/29 01:04:36;;;;;;;24.45;13.85;;;;;;;9.63;68.55;100849.81;4958633;28;20013;-70
2022/03/29 01:07:02;;;;;;;17.88;13.82;;;;;;;9.56;69.10;100849.50;4978377;28;20021;-70
2022/03/29 01:09:29;;;;;;;19.60;13.38;;;;;;;9.50;69.53;100843.91;4970911;28;20002;-69
2022/03/29 01:11:54;;;;;;;22.45;14.68;;;;;;;9.51;68.91;100845.56;4962131;28;20193;-70
2022/03/29 01:14:21;;;;;;;21.65;13.98;;;;;;;9.43;69.51;100849.69;4941619;28;20231;-69
2022/03/29 01:19:30;;;;;;;21.80;14.38;;;;;;;9.83;67.90;100845.53;4955770;28;20033;-70
2022/03/29 01:22:03;;;;;;;23.38;14.15;;;;;;;9.85;68.10;100837.47;4963022;28;20023;-70
2022/03/29 01:24:28;;;;;;;18.85;13.60;;;;;;;9.88;68.08;100845.97;4955463;28;20349;-68
2022/03/29 01:27:00;;;;;;;21.05;14.77;;;;;;;9.93;67.64;100835.84;4955082;28;21037;-69
2022/03/29 01:29:27;;;;;;;22.90;15.15;;;;;;;9.93;67.32;100827.91;4942467;28;20449;-69
2022/03/29 01:31:52;;;;;;;20.45;15.70;;;;;;;9.72;68.16;100837.66;4957498;28;20854;-70
2022/03/29 01:34:21;;;;;;;19.95;14.48;;;;;;;9.57;68.52;100829.22;4957871;28;20076;-69
2022/03/29 01:36:47;;;;;;;28.10;15.80;;;;;;;9.74;68.24;100828.66;4958613;28;20193;-69
2022/03/29 01:39:12;;;;;;;22.38;15.73;;;;;;;9.51;68.72;100820.00;4940878;28;20015;-70
2022/03/29 01:41:38;;;;;;;23.75;16.10;;;;;;;9.39;68.87;100823.66;4969384;28;20014;-69
2022/03/29 01:44:05;;;;;;;29.98;16.27;;;;;;;9.43;69.69;100825.94;4955898;28;20002;-70
2022/03/29 01:46:30;;;;;;;22.88;15.93;;;;;;;9.52;69.15;100821.69;4958908;28;19995;-69
2022/03/29 01:48:57;;;;;;;22.13;14.70;;;;;;;9.69;68.55;100824.72;4956061;28;20034;-70
2022/03/29 01:51:23;;;;;;;24.08;15.45;;;;;;;9.56;69.07;100820.44;4953358;28;20026;-70
2022/03/29 01:53:52;;;;;;;22.13;16.30;;;;;;;9.45;69.65;100817.88;4973712;28;20373;-69
2022/03/29 01:56:17;;;;;;;24.67;16.00;;;;;;;9.31;69.66;100812.88;4945879;28;20267;-70
2022/03/29 01:58:43;;;;;;;23.45;16.08;;;;;;;9.24;70.31;100802.81;4955281;28;20725;-69
2022/03/29 02:01:08;;;;;;;23.08;15.45;;;;;;;9.22;70.21;100796.84;4953396;28;20510;-70
2022/03/29 02:03:34;;;;;;;27.23;15.30;;;;;;;9.18;70.05;100799.84;4938599;28;20007;-69
2022/03/29 02:05:59;;;;;;;23.90;14.70;;;;;;;9.11;70.11;100799.53;4937993;28;20409;-69
2022/03/29 02:08:25;;;;;;;28.02;14.73;;;;;;;9.09;70.82;100794.38;4957932;28;20065;-70
2022/03/29 02:10:51;;;;;;;22.05;13.98;;;;;;;8.93;70.90;100789.50;4959758;28;20418;-69
2022/03/29 02:13:16;;;;;;;22.90;14.55;;;;;;;9.03;71.06;100791.41;4975134;28;20410;-70
2022/03/29 02:15:42;;;;;;;25.50;14.00;;;;;;;9.03;70.87;100792.22;4957548;28;20525;-70
2022/03/29 02:18:07;;;;;;;20.08;14.88;;;;;;;9.02;71.33;100784.44;4958365;28;20042;-69
2022/03/29 02:20:33;;;;;;;20.27;15.02;;;;;;;9.03;71.24;100781.66;4963696;28;20121;-69
2022/03/29 02:23:03;;;;;;;22.17;16.20;;;;;;;9.07;70.68;100787.56;4953673;28;20030;-69
2022/03/29 02:25:28;;;;;;;26.23;16.30;;;;;;;9.01;70.96;100782.75;4954115;28;20352;-69
2022/03/29 02:27:55;;;;;;;24.13;16.27;;;;;;;9.03;71.29;100784.31;4953970;28;20094;-70
2022/03/29 02:30:20;;;;;;;22.17;16.40;;;;;;;8.99;70.69;100774.97;4937424;28;20232;-70
2022/03/29 02:32:45;;;;;;;23.42;16.42;;;;;;;8.97;71.27;100770.78;4954041;28;20946;-69
2022/03/29 02:35:11;;;;;;;22.70;15.18;;;;;;;8.99;71.47;100769.69;4935237;28;20283;-70
2022/03/29 02:37:37;;;;;;;22.13;15.70;;;;;;;8.92;71.63;100771.97;4953450;28;20027;-70
2022/03/29 02:40:03;;;;;;;20.88;14.70;;;;;;;9.21;70.42;100763.47;4952837;28;20007;-69
2022/03/29 02:42:29;;;;;;;24.33;15.07;;;;;;;9.16;70.64;100763.00;4960675;28;20080;-69
2022/03/29 02:44:54;;;;;;;22.88;14.88;;;;;;;9.07;70.54;100761.97;4937466;28;20090;-70
2022/03/29 02:47:20;;;;;;;24.48;15.93;;;;;;;9.20;70.38;100755.69;4937110;28;20017;-69
2022/03/29 02:49:45;;;;;;;23.42;15.30;;;;;;;9.37;70.33;100751.63;4961775;28;20876;-69
2022/03/29 02:52:11;;;;;;;27.67;15.45;;;;;;;9.35;70.09;100754.41;4969893;28;20020;-69
2022/03/29 02:54:36;;;;;;;25.42;15.35;;;;;;;9.39;70.74;100747.06;4954590;28;21048;-70
2022/03/29 02:57:02;;;;;;;23.08;15.95;;;;;;;9.47;70.09;100747.25;4941189;28;20206;-69
2022/03/29 02:59:28;;;;;;;27.48;15.90;;;;;;;9.40;70.02;100751.38;4921180;28;20099;-69
2022/03/29 03:01:53;;;;;;;20.88;14.98;;;;;;;9.35;70.25;100737.72;4953521;28;20015;-70
2022/03/29 03:04:19;;;;;;;24.42;15.82;;;;;;;9.33;70.45;100740.47;4953346;28;20910;-70
2022/03/29 03:06:44;;;;;;;23.90;15.50;;;;;;;9.28;70.70;100740.88;4954040;28;20435;-69
2022/03/29 03:09:09;;;;;;;24.58;15.45;;;;;;;9.41;70.63;100742.50;4956056;28;20023;-69
2022/03/29 03:11:36;;;;;;;26.92;15.10;;;;;;;9.52;69.72;100736.28;4941282;28;20033;-68
2022/03/29 03:14:01;;;;;;;21.80;15.27;;;;;;;9.39;70.36;100740.00;4938731;28;20034;-70
2022/03/29 03:16:26;;;;;;;25.23;14.88;;;;;;;9.33;69.89;100737.03;4940649;28;20172;-70
2022/03/29 03:18:52;;;;;;;24.77;15.15;;;;;;;9.31;69.88;100731.00;4957559;28;20515;-69
2022/03/29 03:21:17;;;;;;;23.08;14.60;;;;;;;9.19;70.68;100723.16;4954505;28;20019;-69
2022/03/29 03:23:43;;;;;;;25.45;15.13;;;;;;;9.16;70.96;100728.69;4940540;28;20118;-69
2022/03/29 03:26:08;;;;;;;22.33;14.48;;;;;;;9.11;71.06;100725.63;4952873;28;20076;-69
2022/03/29 03:28:33;;;;;;;20.67;14.30;;;;;;;9.01;71.48;100719.41;4962424;28;20007;-70
2022/03/29 03:30:59;;;;;;;20.13;13.95;;;;;;;9.06;71.05;100715.41;4951162;28;20037;-70
2022/03/29 03:33:24;;;;;;;21.88;13.98;;;;;;;9.10;71.33;100702.81;4938902;28;20011;-69
2022/03/29 03:35:49;;;;;;;23.35;14.57;;;;;;;9.05;71.22;100705.84;4952996;28;20565;-69
2022/03/29 03:38:15;;;;;;;26.67;14.80;;;;;;;9.05;71.33;100700.56;4953695;28;20034;-68
2022/03/29 03:40:41;;;;;;;22.63;14.75;;;;;;;9.04;71.00;100709.44;4936736;28;20276;-70
2022/03/29 03:43:06;;;;;;;28.05;15.00;;;;;;;9.03;71.02;100712.22;4936815;28;20379;-70
2022/03/29 03:45:32;;;;;;;18.98;14.38;;;;;;;9.18;70.95;100710.94;4953074;28;20041;-70
2022/03/29 03:47:57;;;;;;;21.55;14.88;;;;;;;9.21;70.91;100697.47;4959625;28;20015;-68
2022/03/29 03:50:22;;;;;;;21.33;14.85;;;;;;;9.25;70.87;100701.53;4955169;28;20827;-70
2022/03/29 03:52:49;;;;;;;24.83;15.35;;;;;;;9.23;70.70;100697.34;4961286;28;20342;-70
2022/03/29 03:55:15;;;;;;;21.73;14.55;;;;;;;9.17;70.95;100698.69;4956360;28;20031;-69
2022/03/29 03:57:40;;;;;;;24.35;14.60;;;;;;;9.06;71.85;100691.66;4974184;28;20065;-69
2022/03/29 04:00:06;;;;;;;25.48;14.73;;;;;;;9.03;71.58;100691.09;4956010;28;20087;-70
2022/03/29 04:02:31;;;;;;;24.27;15.15;;;;;;;9.04;71.58;100682.19;4948361;28;20017;-69
2022/03/29 04:04:57;;;;;;;24.85;14.18;;;;;;;9.07;71.18;100684.59;4936029;28;20896;-69
2022/03/29 04:07:22;;;;;;;23.08;13.52;;;;;;;9.09;71.34;100680.03;4916590;28;20014;-71
2022/03/29 04:09:48;;;;;;;22.58;14.15;;;;;;;9.08;72.14;100678.34;4937131;28;20027;-70
2022/03/29 04:12:13;;;;;;;21.80;14.25;;;;;;;9.13;71.69;100675.34;4970209;28;20026;-70
2022/03/29 04:14:38;;;;;;;20.95;14.63;;;;;;;9.28;71.03;100669.59;4958180;28;20037;-70
2022/03/29 04:17:04;;;;;;;21.27;14.68;;;;;;;9.28;71.19;100666.13;4958556;28;20038;-71
2022/03/29 04:19:30;;;;;;;21.48;15.32;;;;;;;9.19;71.17;100667.72;4953817;28;20478;-70
2022/03/29 04:21:55;;;;;;;19.80;15.48;;;;;;;9.21;71.07;100668.44;4946537;28;20019;-70
2022/03/29 04:24:20;;;;;;;26.33;15.80;;;;;;;9.10;70.99;100666.69;4973566;28;20147;-70
2022/03/29 04:26:47;;;;;;;21.20;15.32;;;;;;;9.24;70.34;100662.88;4975901;28;20078;-70
2022/03/29 04:29:12;;;;;;;21.52;15.55;;;;;;;9.08;71.23;100655.44;4950853;28;20193;-70
2022/03/29 04:31:38;;;;;;;22.67;15.52;;;;;;;9.13;70.98;100655.03;4959282;28;20011;-70
2022/03/29 04:34:05;;;;;;;24.52;16.33;;;;;;;9.15;71.00;100654.91;4941145;28;20015;-70
2022/03/29 04:36:31;;;;;;;21.27;16.00;;;;;;;8.91;71.60;100651.56;4950637;28;20046;-71
2022/03/29 04:38:57;;;;;;;26.42;17.35;;;;;;;8.81;71.84;100641.91;4929114;28;20057;-70
2022/03/29 04:41:23;;;;;;;22.65;16.65;;;;;;;8.75;72.41;100645.88;4959337;28;20018;-70
2022/03/29 04:43:49;;;;;;;22.50;16.40;;;;;;;8.78;72.41;100635.06;4934226;28;20064;-69
2022/03/29 04:46:14;;;;;;;23.85;16.25;;;;;;;8.76;72.47;100644.94;4943558;28;20306;-70
2022/03/29 04:48:39;;;;;;;25.80;16.48;;;;;;;8.68;72.27;100640.28;4947059;28;20014;-70
2022/03/29 04:51:05;;;;;;;25.75;16.38;;;;;;;8.92;71.99;100639.19;4956254;28;20955;-70
2022/03/29 04:53:30;;;;;;;25.83;16.52;;;;;;;8.83;71.64;100635.53;4945700;28;20023;-72
2022/03/29 04:55:56;;;;;;;22.05;15.45;;;;;;;8.79;72.22;100628.00;4957890;28;20597;-70
2022/03/29 04:58:22;;;;;;;23.63;15.88;;;;;;;8.88;71.45;100625.44;4957807;28;20886;-70
2022/03/29 05:00:47;;;;;;;26.00;16.17;;;;;;;8.96;71.69;100624.78;4953890;28;20007;-69
2022/03/29 05:03:13;;;;;;;26.17;15.38;;;;;;;8.83;71.63;100624.97;4941512;28;20532;-70
2022/03/29 05:05:38;;;;;;;27.42;15.65;;;;;;;8.92;71.42;100616.28;4953876;28;20018;-70
2022/03/29 05:08:04;;;;;;;21.52;16.00;;;;;;;8.84;71.68;100608.19;4955873;28;20019;-70
2022/03/29 05:10:29;;;;;;;24.05;16.20;;;;;;;8.67;71.99;100600.84;4948885;28;20414;-69
2022/03/29 05:12:56;;;;;;;25.42;16.60;;;;;;;8.70;72.06;100611.97;4961481;28;20010;-69
2022/03/29 05:15:22;;;;;;;24.77;17.05;;;;;;;8.66;71.85;100607.06;4944515;28;20011;-70
2022/03/29 05:17:47;;;;;;;21.58;16.25;;;;;;;8.55;71.99;100600.06;4922733;28;20030;-72
2022/03/29 05:20:14;;;;;;;22.33;16.08;;;;;;;8.50;72.79;100605.72;4951826;28;20922;-72
2022/03/29 05:22:41;;;;;;;19.65;14.63;;;;;;;8.46;73.04;100606.94;4970665;28;20063;-70
2022/03/29 05:25:06;;;;;;;19.77;14.93;;;;;;;8.46;73.09;100604.31;4965317;28;20058;-71
2022/03/29 05:27:32;;;;;;;25.40;14.95;;;;;;;8.53;72.63;100602.84;4960083;28;20096;-71
2022/03/29 05:29:58;;;;;;;22.65;15.38;;;;;;;8.52;72.61;100606.44;4939621;28;20019;-71
2022/03/29 05:32:23;;;;;;;21.05;14.77;;;;;;;8.70;72.32;100606.72;4952118;28;20019;-70
2022/03/29 05:34:49;;;;;;;21.58;15.27;;;;;;;8.68;72.12;100607.78;4942533;28;20396;-71
2022/03/29 05:37:14;;;;;;;23.38;15.88;;;;;;;8.70;72.34;100600.56;4953012;28;20054;-70
2022/03/29 05:39:40;;;;;;;26.00;16.50;;;;;;;8.54;72.74;100603.66;4966439;28;20030;-71
2022/03/29 05:42:06;;;;;;;22.75;16.75;;;;;;;8.63;72.52;100602.06;4936273;28;20016;-72
2022/03/29 05:44:32;;;;;;;24.55;16.27;;;;;;;8.68;72.88;100602.53;4966688;28;20257;-71
2022/03/29 05:49:41;;;;;;;27.25;16.55;;;;;;;8.70;72.27;100605.84;4976253;28;20843;-71
2022/03/29 05:52:06;;;;;;;26.77;16.15;;;;;;;8.81;72.06;100616.34;4943973;28;20030;-71
2022/03/29 05:54:32;;;;;;;27.05;17.15;;;;;;;8.74;72.29;100613.41;4955587;28;20246;-71
2022/03/29 05:56:57;;;;;;;24.00;17.15;;;;;;;8.87;71.66;100620.28;4937379;28;20031;-71
2022/03/29 05:59:23;;;;;;;24.02;16.33;;;;;;;8.82;72.39;100610.09;4957103;28;20033;-71
2022/03/29 06:01:48;;;;;;;26.73;17.05;;;;;;;8.72;72.56;100606.56;4940188;28;20217;-71
2022/03/29 06:04:13;;;;;;;22.77;17.38;;;;;;;8.71;72.98;100612.81;4945989;28;20212;-71
2022/03/29 06:06:40;;;;;;;25.20;17.70;;;;;;;8.71;72.96;100604.91;4953276;28;20026;-71
2022/03/29 06:09:06;;;;;;;23.17;16.98;;;;;;;8.73;73.00;100613.53;4944312;28;20025;-71
2022/03/29 06:11:31;;;;;;;23.55;16.85;;;;;;;8.81;72.50;100613.72;4960934;28;20010;-71
2022/03/29 06:13:57;;;;;;;26.17;17.95;;;;;;;8.80;72.30;100619.97;4940250;28;20021;-70
2022/03/29 06:16:23;;;;;;;23.42;16.35;;;;;;;8.95;72.73;100625.75;4953117;28;20010;-71
2022/03/29 06:18:48;;;;;;;24.65;16.48;;;;;;;9.06;72.17;100625.69;4950861;28;20088;-71
2022/03/29 06:21:16;;;;;;;23.00;17.40;;;;;;;8.97;72.66;100630.88;4933843;28;20023;-71
2022/03/29 06:23:41;;;;;;;23.42;18.75;;;;;;;9.00;71.42;100633.28;4956484;28;20014;-70
2022/03/29 06:26:07;;;;;;;23.63;18.38;;;;;;;9.08;71.99;100630.81;4958520;28;20487;-70
2022/03/29 06:28:33;;;;;;;24.88;18.30;;;;;;;9.21;72.31;100636.75;4972179;28;20559;-72
2022/03/29 06:30:58;;;;;;;22.20;17.75;;;;;;;9.22;73.51;100641.06;4958187;28;20002;-70
2022/03/29 06:33:24;;;;;;;22.20;17.67;;;;;;;9.30;73.31;100634.28;4971498;28;20727;-70
2022/03/29 06:35:50;;;;;;;29.00;19.00;;;;;;;9.43;72.50;100643.69;4971238;28;20192;-71
2022/03/29 06:38:20;;;;;;;23.30;18.38;;;;;;;9.63;71.06;100626.09;4966177;28;20039;-71
2022/03/29 06:40:47;;;;;;;26.27;18.88;;;;;;;9.60;70.72;100636.94;4965902;28;20819;-71
2022/03/29 06:43:12;;;;;;;23.30;18.88;;;;;;;9.74;71.28;100645.47;4956576;28;20094;-70
2022/03/29 06:45:38;;;;;;;24.83;18.55;;;;;;;9.75;70.99;100640.03;4973648;28;20026;-71
2022/03/29 06:48:04;;;;;;;26.80;19.75;;;;;;;9.75;71.18;100634.75;4956070;28;20024;-71
2022/03/29 06:50:29;;;;;;;23.38;18.77;;;;;;;10.02;69.61;100641.22;4959102;28;20380;-71
2022/03/29 06:52:55;;;;;;;23.60;19.38;;;;;;;10.21;69.00;100644.88;4968172;28;20582;-70
2022/03/29 06:55:21;;;;;;;24.13;18.25;;;;;;;10.18;69.73;100646.00;4953522;28;20010;-71
2022/03/29 06:57:46;;;;;;;27.20;18.33;;;;;;;10.13;69.92;100637.63;4948919;28;20103;-72
2022/03/29 07:00:12;;;;;;;28.58;20.25;;;;;;;10.18;68.35;100645.16;4934520;28;21032;-71
2022/03/29 07:02:38;;;;;;;23.50;19.20;;;;;;;10.29;66.99;100645.88;4982273;28;20032;-71
2022/03/29 07:05:03;;;;;;;28.95;20.00;;;;;;;10.41;66.40;100635.19;4957099;28;20022;-71
2022/03/29 07:07:29;;;;;;;26.35;19.30;;;;;;;10.45;65.63;100642.72;4945780;28;20590;-71
2022/03/29 07:12:58;;;;;;;24.95;19.67;;;;;;;10.69;64.79;100638.81;4937605;28;20029;-71
2022/03/29 07:15:24;;;;;;;24.85;19.02;;;;;;;10.75;64.35;100637.44;4921278;28;20034;-71
2022/03/29 07:17:50;;;;;;;27.23;19.58;;;;;;;10.68;64.80;100644.25;4942268;28;20038;-71
2022/03/29 07:20:21;;;;;;;25.83;18.75;;;;;;;10.82;64.31;100638.53;4951676;28;20011;-71
2022/03/29 07:22:47;;;;;;;23.70;18.65;;;;;;;10.91;64.95;100635.00;4957262;28;20023;-72
2022/03/29 07:25:13;;;;;;;26.42;19.05;;;;;;;10.95;63.85;100636.41;4970561;28;20231;-70
2022/03/29 07:27:39;;;;;;;23.13;19.08;;;;;;;10.83;64.29;100640.22;4955526;28;20916;-71
2022/03/29 07:30:05;;;;;;;23.00;18.40;;;;;;;10.96;64.47;100635.44;4974166;28;20602;-71
2022/03/29 07:32:30;;;;;;;29.08;18.35;;;;;;;10.90;62.76;100638.66;4956967;28;20511;-70
2022/03/29 07:34:56;;;;;;;25.30;19.13;;;;;;;10.98;62.97;100641.44;4975719;28;20455;-71
2022/03/29 07:37:22;;;;;;;22.45;18.05;;;;;;;11.15;63.71;100639.03;4980814;28;20056;-71
2022/03/29 07:39:48;;;;;;;22.55;18.42;;;;;;;11.22;62.24;100647.22;4955334;28;20277;-71
2022/03/29 07:42:13;;;;;;;21.70;17.95;;;;;;;11.26;61.71;100649.44;4971861;28;20022;-71
2022/03/29 07:44:39;;;;;;;20.58;18.08;;;;;;;11.29;62.28;100643.84;4938626;28;20560;-71
2022/03/29 07:47:04;;;;;;;23.17;18.15;;;;;;;11.32;61.99;100630.34;4950650;28;20026;-69
2022/03/29 07:49:30;;;;;;;20.48;17.10;;;;;;;11.33;62.73;100631.16;4951890;28;20007;-70
2022/03/29 07:51:56;;;;;;;21.60;17.27;;;;;;;11.50;61.92;100626.91;4952443;28;20182;-70
2022/03/29 07:54:21;;;;;;;19.90;16.88;;;;;;;11.39;62.31;100624.47;4966543;28;20079;-72
2022/03/29 07:56:46;;;;;;;20.17;16.40;;;;;;;11.36;61.89;100624.75;4971157;28;21049;-72
2022/03/29 07:59:12;;;;;;;22.45;16.70;;;;;;;11.65;60.95;100620.16;4955812;28;20030;-71
2022/03/29 08:01:37;;;;;;;18.77;16.48;;;;;;;11.73;61.02;100621.22;4975871;28;20268;-72
2022/03/29 08:04:04;;;;;;;19.42;16.02;;;;;;;11.90;60.74;100617.81;4937980;28;20105;-71
2022/03/29 08:06:30;;;;;;;20.50;16.02;;;;;;;12.11;59.83;100612.28;4971516;28;20872;-72
2022/03/29 08:08:55;;;;;;;18.60;15.90;;;;;;;12.36;58.88;100612.50;4959375;28;20022;-72
2022/03/29 08:11:22;;;;;;;20.10;15.45;;;;;;;12.48;58.58;100616.59;4961755;28;20051;-72
2022/03/29 08:13:47;;;;;;;20.67;15.48;;;;;;;12.45;58.88;100616.03;4939019;28;20021;-72
2022/03/29 08:16:14;;;;;;;17.25;15.13;;;;;;;12.31;57.61;100605.00;4957316;28;20114;-72
2022/03/29 08:18:39;;;;;;;18.75;14.73;;;;;;;12.36;57.87;100615.16;4948333;28;20181;-72
2022/03/29 08:21:47;;;;;;;17.17;14.57;;;;;;;12.47;57.71;100616.75;4949160;28;20034;-72
2022/03/29 08:23:50;;;;;;;17.17;15.13;;;;;;;12.45;56.53;100605.44;4956798;28;20019;-72
2022/03/29 08:26:16;;;;;;;17.58;14.23;;;;;;;12.51;56.73;100605.66;4959252;28;20738;-72
2022/03/29 08:28:41;;;;;;;15.07;13.48;;;;;;;12.76;57.26;100605.88;4956341;28;20341;-72
2022/03/29 08:31:06;;;;;;;17.30;15.20;;;;;;;12.74;56.58;100599.03;4957536;28;20021;-71
2022/03/29 08:33:32;;;;;;;20.88;16.15;;;;;;;12.60;56.18;100601.25;4957254;28;20011;-72
2022/03/29 08:35:57;;;;;;;19.08;16.13;;;;;;;12.55;56.75;100598.25;4953735;28;20033;-72
2022/03/29 08:38:22;;;;;;;18.48;15.98;;;;;;;12.66;56.32;100600.66;4933652;28;20827;-71
2022/03/29 08:40:48;;;;;;;17.38;15.30;;;;;;;12.77;56.20;100594.25;4952769;28;20023;-72
2022/03/29 08:43:15;;;;;;;16.83;15.00;;;;;;;12.66;55.55;100590.03;4974595;28;20099;-71
2022/03/29 08:45:40;;;;;;;18.30;14.80;;;;;;;12.73;56.26;100597.38;4946779;28;20023;-71
2022/03/29 08:48:06;;;;;;;18.98;14.73;;;;;;;12.67;55.27;100589.03;4949444;28;20025;-72
2022/03/29 08:50:36;;;;;;;17.33;14.65;;;;;;;12.64;56.45;100585.88;4956555;28;21071;-71
2022/03/29 08:53:02;;;;;;;19.00;14.73;;;;;;;12.54;56.08;100585.94;4952038;28;20694;-71
2022/03/29 08:55:27;;;;;;;17.40;14.38;;;;;;;12.71;55.79;100579.75;4925059;28;20059;-70
2022/03/29 08:57:55;;;;;;;15.30;13.70;;;;;;;12.83;56.28;100577.72;4972747;28;20149;-70
2022/03/29 09:00:21;;;;;;;17.00;13.00;;;;;;;12.71;54.80;100576.28;4951317;28;20440;-70
2022/03/29 09:02:47;;;;;;;17.08;13.52;;;;;;;12.75;55.76;100580.31;4959623;28;20392;-70
2022/03/29 09:05:13;;;;;;;14.25;12.77;;;;;;;12.89;55.29;100570.94;4977396;28;20042;-70
2022/03/29 09:07:48;;;;;;;13.20;11.90;;;;;;;13.04;54.63;100574.69;4976800;28;20108;-70
2022/03/29 09:10:15;;;;;;;17.02;12.13;;;;;;;13.19;54.51;100572.25;4977755;28;20113;-71
2022/03/29 09:12:40;;;;;;;16.58;12.35;;;;;;;13.29;53.95;100560.69;4973546;28;20755;-71
2022/03/29 09:15:06;;;;;;;13.75;12.02;;;;;;;13.32;52.78;100566.50;4979402;28;20029;-71
2022/03/29 09:17:39;;;;;;;13.30;11.93;;;;;;;13.14;53.76;100568.41;4977182;28;20897;-71
2022/03/29 09:20:10;;;;;;;13.57;11.88;;;;;;;13.36;52.93;100567.88;4957597;28;20070;-71
2022/03/29 09:22:55;;;;;;;13.45;12.05;;;;;;;13.54;52.74;100566.97;4940044;28;20883;-70
2022/03/29 09:25:39;;;;;;;12.60;11.40;;;;;;;13.42;52.53;100563.75;4961012;28;20014;-71
2022/03/29 09:28:13;;;;;;;13.02;11.73;;;;;;;13.20;52.97;100570.47;4965182;28;20027;-72
2022/03/29 09:30:46;;;;;;;13.13;11.07;;;;;;;13.38;53.63;100560.59;4950981;28;20010;-71
2022/03/29 09:33:16;;;;;;;14.02;11.77;;;;;;;13.50;53.11;100561.13;4945248;28;20884;-70
2022/03/29 09:36:07;;;;;;;12.93;11.68;;;;;;;13.44;52.84;100561.78;4962303;28;20599;-71
2022/03/29 09:38:37;;;;;;;12.32;11.13;;;;;;;13.27;54.01;100552.88;4957797;28;20035;-71
2022/03/29 09:41:05;;;;;;;13.32;11.73;;;;;;;13.32;53.96;100550.56;4961781;28;20015;-71
2022/03/29 09:43:32;;;;;;;12.23;11.02;;;;;;;13.38;52.97;100543.81;4975194;28;21003;-72
2022/03/29 09:45:59;;;;;;;11.75;10.40;;;;;;;13.48;52.81;100547.19;4959010;28;19994;-72
2022/03/29 09:48:26;;;;;;;11.98;10.63;;;;;;;13.80;52.11;100548.25;4972456;28;20340;-71
2022/03/29 09:51:03;;;;;;;11.93;10.73;;;;;;;14.27;52.61;100530.88;4948369;28;20022;-71
2022/03/29 09:53:45;;;;;;;11.77;10.55;;;;;;;14.75;49.98;100531.84;4950535;28;20840;-70
2022/03/29 09:56:13;;;;;;;11.70;10.45;;;;;;;15.17;49.03;100526.41;4947265;28;20129;-71
2022/03/29 09:58:39;;;;;;;11.75;10.18;;;;;;;15.35;49.01;100520.84;4960539;28;20073;-72
2022/03/29 10:01:05;;;;;;;11.05;9.77;;;;;;;15.45;47.55;100513.44;4959783;28;20110;-72
2022/03/29 10:03:31;;;;;;;10.88;9.43;;;;;;;15.62;46.59;100519.53;4943565;28;20972;-73
2022/03/29 10:06:01;;;;;;;10.98;8.57;;;;;;;16.45;47.65;100511.78;4960970;28;20018;-72
2022/03/29 10:11:26;;;;;;;9.40;8.52;;;;;;;16.81;42.99;100509.25;4965554;28;20029;-73
2022/03/29 10:13:51;;;;;;;9.38;8.40;;;;;;;16.39;44.24;100499.97;4958405;28;20030;-71
2022/03/29 10:16:17;;;;;;;11.88;8.90;;;;;;;17.30;44.38;100501.69;4965972;28;20015;-71
2022/03/29 10:18:45;;;;;;;11.80;8.20;;;;;;;17.29;41.72;100495.50;4960916;28;20050;-72
2022/03/29 10:21:12;;;;;;;9.60;8.60;;;;;;;16.69;43.12;100500.03;4961062;28;20736;-71
2022/03/29 10:23:37;;;;;;;9.48;8.57;;;;;;;16.99;42.73;100502.72;4949638;28;20061;-72
2022/03/29 10:26:03;;;;;;;12.68;8.80;;;;;;;17.23;42.23;100492.75;4952996;28;20445;-72
2022/03/29 10:28:29;;;;;;;8.70;7.90;;;;;;;17.92;41.43;100491.47;4958219;28;20022;-71
2022/03/29 10:30:54;;;;;;;9.35;8.45;;;;;;;18.28;40.37;100488.72;4946797;28;20542;-72
2022/03/29 10:33:24;;;;;;;10.40;8.52;;;;;;;18.31;39.05;100476.78;4950743;28;20019;-71
2022/03/29 10:35:58;;;;;;;10.88;8.77;;;;;;;18.38;38.88;100480.34;4950192;28;20468;-71
2022/03/29 10:38:42;;;;;;;8.57;7.88;;;;;;;19.26;38.28;100474.44;4973992;28;20216;-71
2022/03/29 10:41:28;;;;;;;9.02;8.13;;;;;;;19.51;36.85;100471.25;4972337;28;20034;-71
2022/03/29 10:44:08;;;;;;;8.07;7.38;;;;;;;20.28;36.30;100470.91;4961510;28;20047;-73
2022/03/29 10:46:37;;;;;;;9.38;8.40;;;;;;;20.31;35.52;100467.84;4961432;28;20033;-72
2022/03/29 10:49:22;;;;;;;12.30;7.40;;;;;;;20.32;36.94;100464.09;4999367;28;20041;-73
2022/03/29 10:51:52;;;;;;;8.10;7.30;;;;;;;20.17;34.82;100461.66;4971215;28;20069;-73
2022/03/29 10:54:28;;;;;;;7.38;6.68;;;;;;;20.81;31.78;100453.91;4937316;28;20011;-71
2022/03/29 10:57:07;;;;;;;8.85;7.32;;;;;;;21.13;31.49;100433.31;4959984;28;20073;-72
2022/03/29 10:59:36;;;;;;;8.90;8.00;;;;;;;21.40;31.99;100433.16;4969780;28;20037;-73
2022/03/29 11:02:16;;;;;;;10.45;8.00;;;;;;;21.65;31.55;100440.50;4939729;28;20022;-72
2022/03/29 11:05:00;;;;;;;7.75;7.03;;;;;;;21.83;30.39;100424.41;4953965;28;20021;-71
2022/03/29 11:07:26;;;;;;;7.60;7.00;;;;;;;22.08;30.75;100429.81;4961019;28;20033;-73
2022/03/29 11:10:21;;;;;;;8.10;7.30;;;;;;;21.79;30.89;100428.59;4950237;28;20050;-73
2022/03/29 11:12:51;;;;;;;7.70;6.65;;;;;;;22.18;30.23;100418.53;4960841;28;20113;-72
2022/03/29 11:15:33;;;;;;;8.48;6.70;;;;;;;22.04;30.44;100422.38;4953777;28;20068;-71
2022/03/29 11:17:58;;;;;;;8.00;7.20;;;;;;;21.59;31.21;100416.09;4960584;28;20038;-73
2022/03/29 11:20:27;;;;;;;8.07;6.45;;;;;;;22.49;29.17;100416.78;4961181;28;20217;-73
2022/03/29 11:22:52;;;;;;;7.22;6.45;;;;;;;23.12;29.51;100406.72;4958512;28;20019;-72
2022/03/29 11:25:20;;;;;;;7.30;6.60;;;;;;;22.72;28.94;100413.41;4936644;28;20038;-72